Hisega, South Dakota
Current Conditions -  °F | °C
As of 12:58 AM on Thursday 29 Jan 2015 (Local Time) from KRCA Reporting Station
Overcast Overcast  
Wind Chill: 21°   Ceiling: 2800
Heat Index: 33°   Visibility: 10mi
Dew Point: 24°   Wind: 21mph
Humidity: 71%   Direction: 350°N
Pressure: 30.33"   Gusts: 29mph
Location:  44.07°N, 103.324°W
Report Text: KRCA 290758Z AUTO 35018G25KT 10SM OVC028 01/M04 A3033 RMK AO2 PK WND 33029/37 SLP287 T00061042 $
Loading
Personal Weather Stations






























Interactive Weather Map New forecast layout! Learn more

10-Day Weather Forecast

Advertisements
Track Severe Weather on mobile